createdAt,value
2017-06-01T00:02:03.491Z,43.7
2017-06-01T00:07:03.154Z,43.8
2017-06-01T00:12:03.794Z,43.6
2017-06-01T00:17:03.572Z,43.6
2017-06-01T00:22:03.056Z,43.6
2017-06-01T00:27:03.460Z,43.6
2017-06-01T00:32:04.725Z,43.5
2017-06-01T00:37:03.402Z,43.6
2017-06-01T00:42:03.006Z,43.6
2017-06-01T00:47:03.726Z,43.5
2017-06-01T00:52:03.263Z,43.6
2017-06-01T00:57:03.750Z,43.6
2017-06-01T01:02:03.335Z,43.6
2017-06-01T01:07:03.134Z,43.5
2017-06-01T01:12:03.918Z,43.5
2017-06-01T01:17:03.421Z,43.5
2017-06-01T01:22:03.679Z,43.5
2017-06-01T01:27:03.016Z,43.4
2017-06-01T01:32:03.617Z,43.6
2017-06-01T01:37:03.972Z,43.5
2017-06-01T01:42:03.267Z,43.5
2017-06-01T01:47:03.968Z,43.4
2017-06-01T01:52:03.471Z,43.4
2017-06-01T01:57:03.045Z,43.4
2017-06-01T02:02:03.620Z,43.5
2017-06-01T02:07:03.258Z,43.4
2017-06-01T02:12:03.760Z,43.4
2017-06-01T02:17:03.543Z,43.3
2017-06-01T02:22:03.057Z,43.4
2017-06-01T02:27:03.528Z,43.4
2017-06-01T02:32:03.471Z,43.4
2017-06-01T02:37:03.984Z,43.3
2017-06-01T02:42:03.717Z,43.2
2017-06-01T02:47:12.074Z,43.2
2017-06-01T02:52:03.781Z,43.4
2017-06-01T02:57:03.813Z,43.2
2017-06-01T03:02:24.733Z,43.4
2017-06-01T03:07:03.375Z,43.2
2017-06-01T03:12:03.432Z,43.4
2017-06-01T03:17:23.668Z,43.3
2017-06-01T03:22:03.047Z,43.4
2017-06-01T03:27:03.209Z,43.4
2017-06-01T03:32:28.029Z,43.3
2017-06-01T03:37:03.618Z,43.3
2017-06-01T03:42:03.846Z,43.3
2017-06-01T03:47:27.935Z,43.2
2017-06-01T03:52:03.382Z,43.2
2017-06-01T03:57:03.547Z,43.1
2017-06-01T04:02:23.829Z,43.0
2017-06-01T04:07:03.199Z,42.9
2017-06-01T04:12:03.505Z,42.7
2017-06-01T04:17:25.684Z,42.7
2017-06-01T04:22:03.415Z,42.7
2017-06-01T04:27:03.684Z,42.4
2017-06-01T04:32:23.567Z,42.4
2017-06-01T04:37:04.016Z,42.2
2017-06-01T04:42:03.890Z,42.0
2017-06-01T04:47:28.819Z,41.9
2017-06-01T04:52:03.895Z,41.9
2017-06-01T04:57:03.419Z,41.8
2017-06-01T05:02:23.423Z,41.7
2017-06-01T05:07:03.117Z,41.8
2017-06-01T05:12:03.686Z,41.7
2017-06-01T05:17:28.445Z,41.7
2017-06-01T05:22:03.706Z,41.9
2017-06-01T05:27:03.222Z,41.7
2017-06-01T05:32:04.948Z,42.4
2017-06-01T05:37:03.787Z,42.6
2017-06-01T05:42:03.900Z,42.8
2017-06-01T05:47:25.005Z,43.0
2017-06-01T05:52:03.924Z,43.0
2017-06-01T05:57:02.990Z,43.1
2017-06-01T06:02:22.185Z,43.1
2017-06-01T06:07:03.297Z,43.1
2017-06-01T06:12:03.913Z,43.1
2017-06-01T06:17:21.861Z,43.1
2017-06-01T06:22:03.525Z,42.9
2017-06-01T06:27:03.916Z,42.8
2017-06-01T06:32:27.949Z,42.7
2017-06-01T06:37:03.046Z,17.3
2017-06-01T06:42:03.572Z,42.9
2017-06-01T06:47:28.085Z,42.9
2017-06-01T06:52:03.237Z,43.0
2017-06-01T06:57:03.412Z,43.2
2017-06-01T07:07:03.369Z,43.2
2017-06-01T07:12:03.118Z,43.4
2017-06-01T07:17:29.674Z,43.2
2017-06-01T07:22:03.374Z,43.3
2017-06-01T07:27:03.803Z,43.3
2017-06-01T07:32:27.621Z,43.3
2017-06-01T07:37:03.510Z,43.5
2017-06-01T07:42:03.813Z,43.9
2017-06-01T07:52:03.880Z,44.4
2017-06-01T07:57:03.327Z,44.8
2017-06-01T08:02:22.307Z,44.9
2017-06-01T08:07:03.951Z,44.9
2017-06-01T08:12:03.455Z,44.7
2017-06-01T08:17:27.022Z,44.4
2017-06-01T08:22:03.154Z,44.3
2017-06-01T08:27:03.806Z,44.3
2017-06-01T08:37:03.115Z,44.0
2017-06-01T08:42:03.607Z,44.2
2017-06-01T08:47:27.159Z,43.7
2017-06-01T08:52:03.693Z,43.7
2017-06-01T08:57:03.329Z,44.2
2017-06-01T09:02:21.954Z,44.5
2017-06-01T09:07:03.963Z,44.3
2017-06-01T09:12:03.273Z,44.1
2017-06-01T09:17:22.411Z,43.7
2017-06-01T09:22:03.710Z,44.6
2017-06-01T09:27:03.329Z,44.6
2017-06-01T09:32:21.063Z,44.5
2017-06-01T09:37:03.295Z,44.5
2017-06-01T09:42:03.851Z,44.5
2017-06-01T09:47:28.273Z,45.0
2017-06-01T09:52:03.186Z,44.8
2017-06-01T09:57:03.559Z,44.9
2017-06-01T10:02:28.565Z,45.0
2017-06-01T10:07:03.449Z,45.4
2017-06-01T10:12:03.926Z,45.4
2017-06-01T10:22:03.191Z,45.5
2017-06-01T10:27:03.867Z,45.5
2017-06-01T10:32:20.451Z,45.5
2017-06-01T10:37:03.396Z,45.5
2017-06-01T10:42:03.693Z,45.5
2017-06-01T10:47:32.376Z,45.9
2017-06-01T10:52:03.156Z,45.5
2017-06-01T10:57:03.072Z,45.5
2017-06-01T11:02:25.169Z,45.6
2017-06-01T11:07:03.140Z,45.4
2017-06-01T11:12:04.015Z,45.4
2017-06-01T11:17:24.577Z,45.2
2017-06-01T11:22:03.324Z,45.2
2017-06-01T11:27:03.999Z,45.3
2017-06-01T11:32:27.544Z,45.3
2017-06-01T11:37:03.487Z,45.6
2017-06-01T11:42:03.034Z,45.6
2017-06-01T11:47:17.033Z,45.3
2017-06-01T11:52:03.126Z,45.4
2017-06-01T11:57:03.782Z,45.4
2017-06-01T12:02:16.858Z,45.7
2017-06-01T12:07:03.467Z,45.7
2017-06-01T12:12:03.434Z,44.7
2017-06-01T12:17:25.939Z,44.9
2017-06-01T12:22:03.188Z,44.4
2017-06-01T12:27:03.729Z,44.6
2017-06-01T12:32:20.956Z,44.4
2017-06-01T12:37:03.662Z,44.2
2017-06-01T12:42:03.936Z,43.8
2017-06-01T12:47:21.159Z,44.5
2017-06-01T12:52:03.432Z,44.5
2017-06-01T12:57:03.045Z,44.3
2017-06-01T13:02:20.407Z,44.8
2017-06-01T13:07:03.202Z,44.8
2017-06-01T13:12:03.630Z,44.3
2017-06-01T13:17:26.089Z,44.3
2017-06-01T13:22:03.282Z,44.1
2017-06-01T13:27:03.629Z,44.1
2017-06-01T13:32:31.169Z,43.9
2017-06-01T13:37:03.532Z,43.9
2017-06-01T13:42:03.756Z,44.0
2017-06-01T13:47:31.882Z,44.0
2017-06-01T13:52:03.105Z,43.7
2017-06-01T13:57:03.755Z,43.7
2017-06-01T14:02:23.254Z,43.0
2017-06-01T14:07:03.387Z,42.9
2017-06-01T14:12:03.934Z,43.6
2017-06-01T14:17:25.542Z,43.8
2017-06-01T14:22:03.082Z,43.8
2017-06-01T14:27:03.288Z,42.7
2017-06-01T14:37:03.093Z,42.5
2017-06-01T14:42:03.298Z,43.6
2017-06-01T14:52:03.318Z,44.6
2017-06-01T14:57:03.201Z,44.7
2017-06-01T15:07:03.902Z,42.0
2017-06-01T15:12:03.266Z,41.9
2017-06-01T15:17:29.258Z,42.0
2017-06-01T15:22:03.701Z,41.9
2017-06-01T15:27:03.745Z,42.0
2017-06-01T15:32:25.118Z,35.0
2017-06-01T15:37:03.921Z,34.9
2017-06-01T15:42:03.786Z,33.3
2017-06-01T15:47:24.436Z,34.0
2017-06-01T15:52:03.127Z,32.9
2017-06-01T15:57:03.764Z,32.9
2017-06-01T16:02:20.733Z,33.2
2017-06-01T16:07:03.697Z,32.7
2017-06-01T16:12:03.589Z,36.6
2017-06-01T16:17:25.834Z,36.7
2017-06-01T16:22:03.166Z,42.0
2017-06-01T16:27:03.941Z,42.5
2017-06-01T16:32:23.668Z,42.5
2017-06-01T16:37:03.809Z,39.3
2017-06-01T16:42:03.218Z,37.0
2017-06-01T16:52:03.357Z,41.3
2017-06-01T16:57:03.443Z,41.9
2017-06-01T17:02:22.353Z,42.7
2017-06-01T17:07:03.932Z,43.0
2017-06-01T17:12:03.729Z,42.9
2017-06-01T17:17:23.990Z,42.8
2017-06-01T17:22:03.902Z,42.8
2017-06-01T17:27:03.134Z,40.8
2017-06-01T17:32:15.628Z,35.2
2017-06-01T17:37:03.449Z,35.1
2017-06-01T17:42:03.148Z,34.2
2017-06-01T17:47:22.417Z,37.3
2017-06-01T17:52:03.566Z,40.3
2017-06-01T17:57:03.691Z,40.5
2017-06-01T18:02:25.681Z,42.3
2017-06-01T18:07:03.230Z,42.6
2017-06-01T18:12:03.405Z,43.2
2017-06-01T18:22:04.020Z,42.9
2017-06-01T18:27:03.800Z,43.3
2017-06-01T18:32:26.451Z,43.2
2017-06-01T18:37:03.196Z,43.4
2017-06-01T18:42:03.204Z,43.1
2017-06-01T18:47:25.773Z,43.5
2017-06-01T18:52:03.168Z,43.5
2017-06-01T18:57:03.564Z,43.3
2017-06-01T19:02:14.972Z,43.5
2017-06-01T19:07:03.683Z,43.4
2017-06-01T19:12:03.795Z,43.9
2017-06-01T19:17:31.712Z,44.0
2017-06-01T19:22:03.422Z,44.1
2017-06-01T19:27:03.878Z,44.1
2017-06-01T19:37:03.765Z,44.1
2017-06-01T19:42:03.123Z,44.2
2017-06-01T19:52:03.700Z,44.1
2017-06-01T19:57:03.600Z,44.2
2017-06-01T20:02:11.368Z,44.1
2017-06-01T20:07:03.600Z,44.1
2017-06-01T20:12:03.545Z,44.1
2017-06-01T20:17:03.743Z,44.0
2017-06-01T20:22:03.881Z,43.9
2017-06-01T20:27:03.996Z,43.9
2017-06-01T20:32:03.371Z,43.7
2017-06-01T20:37:03.959Z,43.7
2017-06-01T20:42:03.567Z,43.6
2017-06-01T20:47:03.178Z,43.7
2017-06-01T20:52:03.075Z,43.7
2017-06-01T20:57:03.742Z,43.6
2017-06-01T21:02:03.944Z,43.8
2017-06-01T21:07:03.198Z,43.7
2017-06-01T21:12:04.017Z,43.7
2017-06-01T21:17:03.695Z,43.7
2017-06-01T21:22:03.812Z,43.7
2017-06-01T21:27:03.557Z,43.8
2017-06-01T21:32:03.494Z,43.8
2017-06-01T21:37:03.414Z,43.8
2017-06-01T21:42:03.323Z,43.8
2017-06-01T21:47:03.676Z,43.9
2017-06-01T21:52:03.870Z,43.9
2017-06-01T21:57:03.486Z,43.9
2017-06-01T22:02:03.646Z,43.6
2017-06-01T22:07:03.131Z,43.8
2017-06-01T22:12:03.247Z,43.8
2017-06-01T22:22:03.632Z,43.6
2017-06-01T22:27:03.080Z,43.9
2017-06-01T22:32:03.899Z,44.0
2017-06-01T22:37:03.260Z,44.1
2017-06-01T22:42:03.759Z,44.0
2017-06-01T22:47:03.108Z,44.0
2017-06-01T22:52:03.482Z,44.1
2017-06-01T22:57:03.080Z,44.0
2017-06-01T23:02:04.084Z,44.0
2017-06-01T23:07:03.220Z,44.0
2017-06-01T23:12:03.700Z,44.0
2017-06-01T23:17:06.278Z,44.1
2017-06-01T23:22:03.544Z,44.0
2017-06-01T23:27:03.365Z,44.0
2017-06-01T23:32:03.946Z,44.0
2017-06-01T23:37:03.859Z,44.0
2017-06-01T23:42:03.340Z,44.0
2017-06-01T23:47:03.919Z,43.9
2017-06-01T23:52:03.444Z,43.9
2017-06-01T23:57:03.804Z,44.0
